createdAt,value
2022-09-09T00:00:51.478Z,16.86
2022-09-09T00:01:51.438Z,16.96
2022-09-09T00:02:51.474Z,16.81
2022-09-09T00:03:51.501Z,16.70
2022-09-09T00:04:51.406Z,16.75
2022-09-09T00:05:51.401Z,16.70
2022-09-09T00:06:51.461Z,16.63
2022-09-09T00:07:51.378Z,16.45
2022-09-09T00:08:51.368Z,16.44
2022-09-09T00:09:51.462Z,16.44
2022-09-09T00:10:51.480Z,16.38
2022-09-09T00:11:51.364Z,16.44
2022-09-09T00:12:51.337Z,16.41
2022-09-09T00:13:51.387Z,16.35
2022-09-09T00:14:51.328Z,16.26
2022-09-09T00:15:51.412Z,16.20
2022-09-09T00:16:51.341Z,16.26
2022-09-09T00:17:51.325Z,16.30
2022-09-09T00:18:51.333Z,16.34
2022-09-09T00:19:51.360Z,16.33
2022-09-09T00:20:51.321Z,16.18
2022-09-09T00:21:51.352Z,16.16
2022-09-09T00:22:51.305Z,16.30
2022-09-09T00:23:51.271Z,16.25
2022-09-09T00:24:51.276Z,16.18
2022-09-09T00:25:52.544Z,16.04
2022-09-09T00:26:52.265Z,15.57
2022-09-09T00:27:51.260Z,15.68
2022-09-09T00:28:51.289Z,15.66
2022-09-09T00:29:51.267Z,15.42
2022-09-09T00:30:51.290Z,15.28
2022-09-09T00:31:51.276Z,15.42
2022-09-09T00:32:51.223Z,15.51
2022-09-09T00:33:51.213Z,15.57
2022-09-09T00:34:51.377Z,15.38
2022-09-09T00:35:51.216Z,15.27
2022-09-09T00:36:51.196Z,15.05
2022-09-09T00:37:51.228Z,15.05
2022-09-09T00:38:51.185Z,15.13
2022-09-09T00:39:51.207Z,15.26
2022-09-09T00:40:51.264Z,15.33
2022-09-09T00:41:51.180Z,15.39
2022-09-09T00:42:51.156Z,15.33
2022-09-09T00:43:51.170Z,15.28
2022-09-09T00:44:51.184Z,15.35
2022-09-09T00:45:51.243Z,15.42
2022-09-09T00:46:51.172Z,15.41
2022-09-09T00:47:51.129Z,15.35
2022-09-09T00:48:51.124Z,15.46
2022-09-09T00:49:51.172Z,15.51
2022-09-09T00:50:51.240Z,15.45
2022-09-09T00:51:51.119Z,15.38
2022-09-09T00:52:51.103Z,15.23
2022-09-09T00:53:51.143Z,15.23
2022-09-09T00:54:51.120Z,15.11
2022-09-09T00:55:51.125Z,15.02
2022-09-09T00:56:51.100Z,15.13
2022-09-09T00:57:51.132Z,14.98
2022-09-09T00:58:51.124Z,15.09
2022-09-09T00:59:51.061Z,15.02
2022-09-09T01:00:51.100Z,14.87
2022-09-09T01:01:51.099Z,14.62
2022-09-09T01:02:51.110Z,14.69
2022-09-09T01:03:51.029Z,14.83
2022-09-09T01:04:51.060Z,14.69
2022-09-09T01:05:51.060Z,14.78
2022-09-09T01:06:51.008Z,14.72
2022-09-09T01:07:53.961Z,14.83
2022-09-09T01:08:51.991Z,14.84
2022-09-09T01:09:50.983Z,14.84
2022-09-09T01:10:50.983Z,14.84
2022-09-09T01:11:50.979Z,14.83
2022-09-09T01:12:51.058Z,14.74
2022-09-09T01:13:50.966Z,14.93
2022-09-09T01:14:50.979Z,15.01
2022-09-09T01:15:50.936Z,15.05
2022-09-09T01:16:50.991Z,15.26
2022-09-09T01:17:50.958Z,15.30
2022-09-09T01:18:50.937Z,15.42
2022-09-09T01:19:50.946Z,15.54
2022-09-09T01:20:50.942Z,15.61
2022-09-09T01:21:50.918Z,15.57
2022-09-09T01:22:50.938Z,15.57
2022-09-09T01:23:50.900Z,15.63
2022-09-09T01:24:50.888Z,15.59
2022-09-09T01:25:50.884Z,15.56
2022-09-09T01:26:50.883Z,15.67
2022-09-09T01:27:50.879Z,15.75
2022-09-09T01:28:50.851Z,15.66
2022-09-09T01:29:50.888Z,15.59
2022-09-09T01:30:50.914Z,15.82
2022-09-09T01:31:50.861Z,15.84
2022-09-09T01:32:50.830Z,16.07
2022-09-09T01:33:50.840Z,16.11
2022-09-09T01:34:50.847Z,16.20
2022-09-09T01:35:50.848Z,16.37
2022-09-09T01:36:50.805Z,16.37
2022-09-09T01:37:50.801Z,16.41
2022-09-09T01:38:50.808Z,16.33
2022-09-09T01:39:50.875Z,16.34
2022-09-09T01:40:50.804Z,16.37
2022-09-09T01:41:50.800Z,16.40
2022-09-09T01:42:50.808Z,16.49
2022-09-09T01:43:50.780Z,16.35
2022-09-09T01:44:50.787Z,16.44
2022-09-09T01:45:50.818Z,16.44
2022-09-09T01:46:50.755Z,16.52
2022-09-09T01:47:50.776Z,16.55
2022-09-09T01:48:50.732Z,16.44
2022-09-09T01:49:50.727Z,16.55
2022-09-09T01:50:50.727Z,16.60
2022-09-09T01:51:50.727Z,16.60
2022-09-09T01:52:50.704Z,16.86
2022-09-09T01:53:50.718Z,16.92
2022-09-09T01:54:50.691Z,16.95
2022-09-09T01:55:50.699Z,16.77
2022-09-09T01:56:50.683Z,16.67
2022-09-09T01:57:50.675Z,16.40
2022-09-09T01:58:51.771Z,16.41
2022-09-09T01:59:50.688Z,16.50
2022-09-09T02:00:50.835Z,16.45
2022-09-09T02:01:50.660Z,16.45
2022-09-09T02:02:50.750Z,16.44
2022-09-09T02:03:50.640Z,16.31
2022-09-09T02:04:50.687Z,16.25
2022-09-09T02:05:51.611Z,16.09
2022-09-09T02:06:50.612Z,16.06
2022-09-09T02:07:50.653Z,16.09
2022-09-09T02:08:50.611Z,15.99
2022-09-09T02:09:50.608Z,15.72
2022-09-09T02:10:50.575Z,15.66
2022-09-09T02:11:50.587Z,15.49
2022-09-09T02:12:50.571Z,15.45
2022-09-09T02:13:50.620Z,15.39
2022-09-09T02:14:50.573Z,15.31
2022-09-09T02:15:50.547Z,15.15
2022-09-09T02:16:50.620Z,15.27
2022-09-09T02:17:50.584Z,15.30
2022-09-09T02:18:50.554Z,15.38
2022-09-09T02:19:50.532Z,15.28
2022-09-09T02:20:50.526Z,15.42
2022-09-09T02:21:50.548Z,15.41
2022-09-09T02:22:50.598Z,15.42
2022-09-09T02:23:50.531Z,15.49
2022-09-09T02:24:50.554Z,15.43
2022-09-09T02:25:50.495Z,15.51
2022-09-09T02:26:50.490Z,15.70
2022-09-09T02:27:50.531Z,15.61
2022-09-09T02:28:50.470Z,15.86
2022-09-09T02:29:50.483Z,15.84
2022-09-09T02:30:50.558Z,15.82
2022-09-09T02:31:50.455Z,15.81
2022-09-09T02:32:50.463Z,15.79
2022-09-09T02:33:50.447Z,15.78
2022-09-09T02:34:50.453Z,15.85
2022-09-09T02:35:50.428Z,15.94
2022-09-09T02:36:50.471Z,15.93
2022-09-09T02:37:50.411Z,15.99
2022-09-09T02:38:50.415Z,16.07
2022-09-09T02:39:50.529Z,16.09
2022-09-09T02:40:50.435Z,16.09
2022-09-09T02:41:50.396Z,16.04
2022-09-09T02:42:50.410Z,16.06
2022-09-09T02:43:50.404Z,16.11
2022-09-09T02:44:50.454Z,16.03
2022-09-09T02:45:50.441Z,16.16
2022-09-09T02:46:50.403Z,16.06
2022-09-09T02:47:50.356Z,16.16
2022-09-09T02:48:50.346Z,16.26
2022-09-09T02:49:50.395Z,16.37
2022-09-09T02:50:50.362Z,16.26
2022-09-09T02:51:50.349Z,16.42
2022-09-09T02:52:50.326Z,16.35
2022-09-09T02:53:50.343Z,16.48
2022-09-09T02:54:50.311Z,16.42
2022-09-09T02:55:50.380Z,16.45
2022-09-09T02:56:50.295Z,16.58
2022-09-09T02:57:50.288Z,16.49
2022-09-09T02:58:50.314Z,16.50
2022-09-09T02:59:50.274Z,16.34
2022-09-09T03:00:50.335Z,16.41
2022-09-09T03:01:50.286Z,16.45
2022-09-09T03:02:50.263Z,16.45
2022-09-09T03:03:50.255Z,16.37
2022-09-09T03:04:50.255Z,16.35
2022-09-09T03:05:50.274Z,16.42
2022-09-09T03:06:50.247Z,16.52
2022-09-09T03:07:50.244Z,16.48
2022-09-09T03:08:50.214Z,16.48
2022-09-09T03:09:50.226Z,16.42
2022-09-09T03:10:50.228Z,16.48
2022-09-09T03:11:50.255Z,16.42
2022-09-09T03:12:50.288Z,16.44
2022-09-09T03:13:50.211Z,16.38
2022-09-09T03:14:50.214Z,16.50
2022-09-09T03:15:50.183Z,16.34
2022-09-09T03:16:50.238Z,16.04
2022-09-09T03:17:50.190Z,16.06
2022-09-09T03:18:50.174Z,16.11
2022-09-09T03:19:50.159Z,16.20
2022-09-09T03:20:50.190Z,16.18
2022-09-09T03:21:50.163Z,16.30
2022-09-09T03:22:50.147Z,16.30
2022-09-09T03:23:50.135Z,16.44
2022-09-09T03:24:50.122Z,16.50
2022-09-09T03:25:50.118Z,16.55
2022-09-09T03:26:50.128Z,16.68
2022-09-09T03:27:50.114Z,16.77
2022-09-09T03:28:50.112Z,16.88
2022-09-09T03:29:50.161Z,16.95
2022-09-09T03:30:50.136Z,16.92
2022-09-09T03:31:50.194Z,16.89
2022-09-09T03:32:50.126Z,16.86
2022-09-09T03:33:50.066Z,16.96
2022-09-09T03:34:50.090Z,16.92
2022-09-09T03:35:50.064Z,16.96
2022-09-09T03:36:50.093Z,16.77
2022-09-09T03:37:50.068Z,16.77
2022-09-09T03:38:50.033Z,16.71
2022-09-09T03:39:50.115Z,16.86
2022-09-09T03:40:50.025Z,16.70
2022-09-09T03:41:50.017Z,16.77
2022-09-09T03:42:50.053Z,16.71
2022-09-09T03:43:50.001Z,16.70
2022-09-09T03:44:50.003Z,16.55
2022-09-09T03:45:50.041Z,16.49
2022-09-09T03:46:49.996Z,16.48
2022-09-09T03:47:50.006Z,16.49
2022-09-09T03:48:49.968Z,16.48
2022-09-09T03:49:49.969Z,16.45
2022-09-09T03:50:49.956Z,16.45
2022-09-09T03:51:49.944Z,16.56
2022-09-09T03:52:49.977Z,16.65
2022-09-09T03:53:49.933Z,16.63
2022-09-09T03:54:49.941Z,16.77
2022-09-09T03:55:49.948Z,16.81
2022-09-09T03:56:49.961Z,16.89
2022-09-09T03:57:49.960Z,16.95
2022-09-09T03:58:49.957Z,16.89
2022-09-09T03:59:50.004Z,16.90
2022-09-09T04:00:49.991Z,16.92
2022-09-09T04:01:49.981Z,16.95
2022-09-09T04:02:49.925Z,17.10
2022-09-09T04:03:49.877Z,17.11
2022-09-09T04:04:49.873Z,17.15
2022-09-09T04:05:49.884Z,17.00
2022-09-09T04:06:49.928Z,16.92
2022-09-09T04:07:49.837Z,16.89
2022-09-09T04:08:49.852Z,16.92
2022-09-09T04:09:49.861Z,16.92
2022-09-09T04:10:49.838Z,16.78
2022-09-09T04:11:49.818Z,16.86
2022-09-09T04:12:49.833Z,16.70
2022-09-09T04:13:49.824Z,16.77
2022-09-09T04:14:49.814Z,16.80
2022-09-09T04:15:49.799Z,16.71
2022-09-09T04:16:49.839Z,16.70
2022-09-09T04:17:49.785Z,16.81
2022-09-09T04:18:49.841Z,16.60
2022-09-09T04:19:49.794Z,16.63
2022-09-09T04:20:49.762Z,16.56
2022-09-09T04:21:49.760Z,16.62
2022-09-09T04:22:49.760Z,16.74
2022-09-09T04:23:49.788Z,16.60
2022-09-09T04:24:49.798Z,16.78
2022-09-09T04:25:49.742Z,16.75
2022-09-09T04:26:49.724Z,16.86
2022-09-09T04:27:49.731Z,16.89
2022-09-09T04:28:49.761Z,16.88
2022-09-09T04:29:49.727Z,16.88
2022-09-09T04:30:49.722Z,16.90
2022-09-09T04:31:49.894Z,16.90
2022-09-09T04:32:49.693Z,17.04
2022-09-09T04:33:49.723Z,17.08
2022-09-09T04:34:49.694Z,17.14
2022-09-09T04:35:49.831Z,16.89
2022-09-09T04:36:49.692Z,16.86
2022-09-09T04:37:49.666Z,16.78
2022-09-09T04:38:49.671Z,16.68
2022-09-09T04:39:49.732Z,16.80
2022-09-09T04:40:49.711Z,16.85
2022-09-09T04:41:49.671Z,16.77
2022-09-09T04:42:49.632Z,16.95
2022-09-09T04:43:49.643Z,16.88
2022-09-09T04:44:49.702Z,16.77
2022-09-09T04:45:49.662Z,16.73
2022-09-09T04:46:49.709Z,16.65
2022-09-09T04:47:49.604Z,16.74
2022-09-09T04:48:49.593Z,16.58
2022-09-09T04:49:49.631Z,16.53
2022-09-09T04:50:49.601Z,16.38
2022-09-09T04:51:49.592Z,16.34
2022-09-09T04:52:49.589Z,16.26
2022-09-09T04:53:49.591Z,16.25
2022-09-09T04:54:49.600Z,16.23
2022-09-09T04:55:49.763Z,16.42
2022-09-09T04:56:49.567Z,16.31
2022-09-09T04:57:49.569Z,16.34
2022-09-09T04:58:49.528Z,16.30
2022-09-09T04:59:49.554Z,16.45
2022-09-09T05:00:49.548Z,16.37
2022-09-09T05:01:49.572Z,16.40
2022-09-09T05:02:49.535Z,16.38
2022-09-09T05:03:49.543Z,16.34
2022-09-09T05:04:49.573Z,16.52
2022-09-09T05:05:49.508Z,16.50
2022-09-09T05:06:49.484Z,16.38
2022-09-09T05:07:49.478Z,16.55
2022-09-09T05:08:49.476Z,16.49
2022-09-09T05:09:49.463Z,16.53
2022-09-09T05:10:49.459Z,16.53
2022-09-09T05:11:49.459Z,16.55
2022-09-09T05:12:49.448Z,16.42
2022-09-09T05:13:49.446Z,16.44
2022-09-09T05:14:49.447Z,16.56
2022-09-09T05:15:49.497Z,16.68
2022-09-09T05:16:49.466Z,16.88
2022-09-09T05:17:49.452Z,16.85
2022-09-09T05:18:49.433Z,17.03
2022-09-09T05:19:49.436Z,16.96
2022-09-09T05:20:49.433Z,16.99
2022-09-09T05:21:49.434Z,17.00
2022-09-09T05:22:49.396Z,17.08
2022-09-09T05:23:49.389Z,17.03
2022-09-09T05:24:49.389Z,17.11
2022-09-09T05:25:49.419Z,17.07
2022-09-09T05:26:49.383Z,16.96
2022-09-09T05:27:49.438Z,16.90
2022-09-09T05:28:49.348Z,16.86
2022-09-09T05:29:49.336Z,16.75
2022-09-09T05:30:49.339Z,16.85
2022-09-09T05:31:49.392Z,16.92
2022-09-09T05:32:49.370Z,17.00
2022-09-09T05:33:49.322Z,17.04
2022-09-09T05:34:49.314Z,16.90
2022-09-09T05:35:49.318Z,16.99
2022-09-09T05:36:49.310Z,16.81
2022-09-09T05:37:49.321Z,16.59
2022-09-09T05:38:49.872Z,16.53
2022-09-09T05:39:49.364Z,16.59
2022-09-09T05:40:49.325Z,16.60
2022-09-09T05:41:49.278Z,16.68
2022-09-09T05:42:49.295Z,16.63
2022-09-09T05:43:49.307Z,16.73
2022-09-09T05:44:49.255Z,16.70
2022-09-09T05:45:49.254Z,16.67
2022-09-09T05:46:49.302Z,16.62
2022-09-09T05:47:49.293Z,16.62
2022-09-09T05:48:49.241Z,16.70
2022-09-09T05:49:49.226Z,16.93
2022-09-09T05:50:49.217Z,16.96
2022-09-09T05:51:49.290Z,16.92
2022-09-09T05:52:49.209Z,17.11
2022-09-09T05:53:49.193Z,17.13
2022-09-09T05:54:49.206Z,17.03
2022-09-09T05:55:49.223Z,17.17
2022-09-09T05:56:51.729Z,17.25
2022-09-09T05:57:50.242Z,17.28
2022-09-09T05:58:49.167Z,17.38
2022-09-09T05:59:49.174Z,17.33
2022-09-09T06:00:49.158Z,17.40
2022-09-09T06:01:49.232Z,17.36
2022-09-09T06:02:49.324Z,17.55
2022-09-09T06:03:49.195Z,17.47
2022-09-09T06:04:49.148Z,17.53
2022-09-09T06:05:49.116Z,17.55
2022-09-09T06:06:49.136Z,17.71
2022-09-09T06:07:49.115Z,17.89
2022-09-09T06:08:49.136Z,18.04
2022-09-09T06:09:49.127Z,18.04
2022-09-09T06:10:49.091Z,18.12
2022-09-09T06:11:49.133Z,18.28
2022-09-09T06:12:49.095Z,18.27
2022-09-09T06:13:49.087Z,18.27
2022-09-09T06:14:49.084Z,18.25
2022-09-09T06:15:49.151Z,18.24
2022-09-09T06:16:49.045Z,18.34
2022-09-09T06:17:49.053Z,18.36
2022-09-09T06:18:49.044Z,18.36
2022-09-09T06:19:49.080Z,18.36
2022-09-09T06:20:49.028Z,18.47
2022-09-09T06:21:49.076Z,18.50
2022-09-09T06:22:49.025Z,18.57
2022-09-09T06:23:49.729Z,18.57
2022-09-09T06:24:49.075Z,18.31
2022-09-09T06:25:49.030Z,18.54
2022-09-09T06:26:49.018Z,18.58
2022-09-09T06:27:48.991Z,18.65
2022-09-09T06:28:48.971Z,18.67
2022-09-09T06:29:49.147Z,18.62
2022-09-09T06:30:48.998Z,18.59
2022-09-09T06:31:49.018Z,18.59
2022-09-09T06:32:48.943Z,18.61
2022-09-09T06:33:48.938Z,18.61
2022-09-09T06:34:48.942Z,18.55
2022-09-09T06:35:48.943Z,18.62
2022-09-09T06:36:49.209Z,18.68
2022-09-09T06:37:48.926Z,18.76
2022-09-09T06:38:48.894Z,18.67
2022-09-09T06:39:48.990Z,18.91
2022-09-09T06:40:48.882Z,19.06
2022-09-09T06:41:48.886Z,19.20
2022-09-09T06:42:48.881Z,19.21
2022-09-09T06:43:48.853Z,19.32
2022-09-09T06:44:48.882Z,19.51
2022-09-09T06:45:48.871Z,19.53
2022-09-09T06:46:48.960Z,19.48
2022-09-09T06:47:48.834Z,19.65
2022-09-09T06:48:48.862Z,19.35
2022-09-09T06:49:48.839Z,19.18
2022-09-09T06:50:48.814Z,19.21
2022-09-09T06:51:48.838Z,19.32
2022-09-09T06:52:48.833Z,19.33
2022-09-09T06:53:48.814Z,19.31
2022-09-09T06:54:48.803Z,19.53
2022-09-09T06:55:48.830Z,19.54
2022-09-09T06:56:48.795Z,19.42
2022-09-09T06:57:48.783Z,19.48
2022-09-09T06:58:48.836Z,19.60
2022-09-09T06:59:48.761Z,19.65
2022-09-09T07:00:48.800Z,19.69
2022-09-09T07:01:51.355Z,19.78
2022-09-09T07:02:50.739Z,20.00
2022-09-09T07:03:48.727Z,20.21
2022-09-09T07:04:48.746Z,20.42
2022-09-09T07:05:48.723Z,20.46
2022-09-09T07:06:48.722Z,20.38
2022-09-09T07:07:48.710Z,20.31
2022-09-09T07:08:55.931Z,20.43
2022-09-09T07:09:50.682Z,20.20
2022-09-09T07:10:48.683Z,20.13
2022-09-09T07:11:48.701Z,20.05
2022-09-09T07:12:48.666Z,20.00
2022-09-09T07:13:48.664Z,19.91
2022-09-09T07:14:48.665Z,19.75
2022-09-09T07:15:48.681Z,19.70
2022-09-09T07:16:48.637Z,19.47
2022-09-09T07:17:48.673Z,19.47
2022-09-09T07:18:48.767Z,19.40
2022-09-09T07:19:48.611Z,19.32
2022-09-09T07:20:49.612Z,19.24
2022-09-09T07:21:48.598Z,19.13
2022-09-09T07:22:48.624Z,19.23
2022-09-09T07:23:48.584Z,19.42
2022-09-09T07:24:48.584Z,19.38
2022-09-09T07:25:48.595Z,19.33
2022-09-09T07:26:48.604Z,19.35
2022-09-09T07:27:48.580Z,19.36
2022-09-09T07:28:48.551Z,19.36
2022-09-09T07:29:48.559Z,19.53
2022-09-09T07:30:48.556Z,19.63
2022-09-09T07:31:48.662Z,19.58
2022-09-09T07:32:48.520Z,19.50
2022-09-09T07:33:48.528Z,19.35
2022-09-09T07:34:48.516Z,19.28
2022-09-09T07:35:48.511Z,19.48
2022-09-09T07:36:48.500Z,19.54
2022-09-09T07:37:50.990Z,19.68
2022-09-09T07:38:49.501Z,19.46
2022-09-09T07:39:48.566Z,19.75
2022-09-09T07:40:48.470Z,19.76
2022-09-09T07:41:48.461Z,19.66
2022-09-09T07:42:49.480Z,19.68
2022-09-09T07:43:48.504Z,19.58
2022-09-09T07:44:48.487Z,19.66
2022-09-09T07:45:48.455Z,19.75
2022-09-09T07:46:48.486Z,19.63
2022-09-09T07:47:48.436Z,19.69
2022-09-09T07:48:48.448Z,19.69
2022-09-09T07:49:48.436Z,19.72
2022-09-09T07:50:48.407Z,19.76
2022-09-09T07:51:48.421Z,19.88
2022-09-09T07:52:48.419Z,20.10
2022-09-09T07:53:48.429Z,20.06
2022-09-09T07:54:48.435Z,20.16
2022-09-09T07:55:48.404Z,20.42
2022-09-09T07:56:48.399Z,20.23
2022-09-09T07:57:48.391Z,20.33
2022-09-09T07:58:48.347Z,20.54
2022-09-09T07:59:48.356Z,20.34
2022-09-09T08:00:48.408Z,21.59
2022-09-09T08:01:48.504Z,23.05
2022-09-09T08:02:48.399Z,23.08
2022-09-09T08:03:48.311Z,22.82
2022-09-09T08:04:48.315Z,22.01
2022-09-09T08:05:48.319Z,21.85
2022-09-09T08:06:48.309Z,21.51
2022-09-09T08:07:48.341Z,21.11
2022-09-09T08:08:48.288Z,20.64
2022-09-09T08:09:48.300Z,20.42
2022-09-09T08:10:48.295Z,20.38
2022-09-09T08:11:48.363Z,20.35
2022-09-09T08:13:07.895Z,20.46
2022-09-09T08:13:53.999Z,20.09
2022-09-09T08:14:49.241Z,20.06
2022-09-09T08:15:48.298Z,20.27
2022-09-09T08:16:48.252Z,20.54
2022-09-09T08:17:48.296Z,20.43
2022-09-09T08:18:48.244Z,20.58
2022-09-09T08:19:48.215Z,20.72
2022-09-09T08:20:48.199Z,20.62
2022-09-09T08:21:48.247Z,20.53
2022-09-09T08:22:48.199Z,20.54
2022-09-09T08:23:48.226Z,20.58
2022-09-09T08:24:48.215Z,22.10
2022-09-09T08:25:48.180Z,23.47
2022-09-09T08:26:48.167Z,25.16
2022-09-09T08:27:48.188Z,25.35
2022-09-09T08:28:48.148Z,25.71
2022-09-09T08:29:48.159Z,26.22
2022-09-09T08:30:48.229Z,26.67
2022-09-09T08:31:48.203Z,27.11
2022-09-09T08:32:50.784Z,27.69
2022-09-09T08:33:53.122Z,27.92
2022-09-09T08:34:48.112Z,27.82
2022-09-09T08:35:49.692Z,28.21
2022-09-09T08:36:49.195Z,27.91
2022-09-09T08:37:51.559Z,28.88
2022-09-09T08:38:49.075Z,29.34
2022-09-09T08:39:48.202Z,28.81
2022-09-09T08:40:48.079Z,28.68
2022-09-09T08:41:48.055Z,28.25
2022-09-09T08:42:49.799Z,28.75
2022-09-09T08:43:48.070Z,27.13
2022-09-09T08:44:49.041Z,25.83
2022-09-09T08:45:49.043Z,26.37
2022-09-09T08:46:48.121Z,26.79
2022-09-09T08:47:48.067Z,27.24
2022-09-09T08:48:48.058Z,27.06
2022-09-09T08:49:48.019Z,26.64
2022-09-09T08:50:48.030Z,27.35
2022-09-09T08:51:48.040Z,27.29
2022-09-09T08:52:48.000Z,27.47
2022-09-09T08:53:48.047Z,28.43
2022-09-09T08:54:52.552Z,28.63
2022-09-09T08:55:48.994Z,29.22
2022-09-09T08:56:48.040Z,28.97
2022-09-09T08:57:47.981Z,29.74
2022-09-09T08:58:47.995Z,29.49
2022-09-09T08:59:47.967Z,29.50
2022-09-09T09:00:47.994Z,29.79
2022-09-09T09:01:47.992Z,30.16
2022-09-09T09:02:47.942Z,29.74
2022-09-09T09:03:47.958Z,30.05
2022-09-09T09:04:47.989Z,29.15
2022-09-09T09:05:47.924Z,26.59
2022-09-09T09:06:47.901Z,24.56
2022-09-09T09:07:47.930Z,24.73
2022-09-09T09:08:48.922Z,24.69
2022-09-09T09:09:47.970Z,24.41
2022-09-09T09:10:47.881Z,25.24
2022-09-09T09:11:47.904Z,27.05
2022-09-09T09:12:47.862Z,27.53
2022-09-09T09:13:47.874Z,28.63
2022-09-09T09:14:47.887Z,27.70
2022-09-09T09:15:47.934Z,28.75
2022-09-09T09:16:47.910Z,27.99
2022-09-09T09:17:47.854Z,27.59
2022-09-09T09:18:47.835Z,26.92
2022-09-09T09:19:47.852Z,26.98
2022-09-09T09:20:47.818Z,27.05
2022-09-09T09:21:47.798Z,26.99
2022-09-09T09:22:47.810Z,27.96
2022-09-09T09:23:47.902Z,28.10
2022-09-09T09:24:47.810Z,28.69
2022-09-09T09:25:47.795Z,29.44
2022-09-09T09:26:47.818Z,29.26
2022-09-09T09:27:47.770Z,29.03
2022-09-09T09:28:47.786Z,29.62
2022-09-09T09:30:17.562Z,29.50
2022-09-09T09:30:49.816Z,28.58
2022-09-09T09:31:47.750Z,27.99
2022-09-09T09:32:47.770Z,28.07
2022-09-09T09:33:47.725Z,26.79
2022-09-09T09:34:47.762Z,27.79
2022-09-09T09:35:47.754Z,27.50
2022-09-09T09:36:47.714Z,26.83
2022-09-09T09:40:05.265Z,30.43
2022-09-09T09:40:49.699Z,28.33
2022-09-09T09:41:47.694Z,27.67
2022-09-09T09:42:47.739Z,26.92
2022-09-09T09:43:47.682Z,27.95
2022-09-09T09:44:47.710Z,28.04
2022-09-09T09:46:06.901Z,27.17
2022-09-09T09:46:49.711Z,26.76
2022-09-09T09:47:47.654Z,26.94
2022-09-09T09:48:47.704Z,26.15
2022-09-09T09:49:47.681Z,25.75
2022-09-09T09:50:47.645Z,25.82
2022-09-09T09:51:47.645Z,25.17
2022-09-09T09:52:47.642Z,24.90
2022-09-09T09:53:48.384Z,24.73
2022-09-09T09:54:47.617Z,24.97
2022-09-09T09:55:47.652Z,24.53
2022-09-09T09:56:48.381Z,23.68
2022-09-09T09:57:47.668Z,23.90
2022-09-09T09:58:47.593Z,24.16
2022-09-09T09:59:47.645Z,24.05
2022-09-09T10:00:47.598Z,23.86
2022-09-09T10:01:47.663Z,23.82
2022-09-09T10:02:47.552Z,23.85
2022-09-09T10:03:47.554Z,24.17
2022-09-09T10:04:48.514Z,25.39
2022-09-09T10:05:47.568Z,25.17
2022-09-09T10:06:47.533Z,25.91
2022-09-09T10:07:47.525Z,26.77
2022-09-09T10:08:47.521Z,26.98
2022-09-09T10:09:47.518Z,26.35
2022-09-09T10:10:48.140Z,26.06
2022-09-09T10:11:48.549Z,27.06
2022-09-09T10:12:47.695Z,27.89
2022-09-09T10:13:47.504Z,28.25
2022-09-09T10:14:47.479Z,28.62
2022-09-09T10:15:47.706Z,29.38
2022-09-09T10:16:47.507Z,30.27
2022-09-09T10:17:47.478Z,30.21
2022-09-09T10:18:47.463Z,31.18
2022-09-09T10:19:47.466Z,31.54
2022-09-09T10:20:47.506Z,31.55
2022-09-09T10:21:47.486Z,30.43
2022-09-09T10:22:47.478Z,27.69
2022-09-09T10:23:47.433Z,27.09
2022-09-09T10:24:47.422Z,26.43
2022-09-09T10:25:47.414Z,27.38
2022-09-09T10:26:47.478Z,27.36
2022-09-09T10:27:47.398Z,26.09
2022-09-09T10:28:47.419Z,27.01
2022-09-09T10:29:47.406Z,27.84
2022-09-09T10:30:47.430Z,28.77
2022-09-09T10:31:47.391Z,28.51
2022-09-09T10:32:47.371Z,28.47
2022-09-09T10:33:47.358Z,29.20
2022-09-09T10:34:47.399Z,29.07
2022-09-09T10:35:47.347Z,28.33
2022-09-09T10:36:47.366Z,27.50
2022-09-09T10:37:47.346Z,26.95
2022-09-09T10:38:47.402Z,28.21
2022-09-09T10:39:47.495Z,28.87
2022-09-09T10:40:47.319Z,28.69
2022-09-09T10:41:47.346Z,28.13
2022-09-09T10:42:47.318Z,27.26
2022-09-09T10:43:47.307Z,27.91
2022-09-09T10:44:47.307Z,28.81
2022-09-09T10:45:47.338Z,28.19
2022-09-09T10:46:47.350Z,27.89
2022-09-09T10:47:47.313Z,27.01
2022-09-09T10:48:47.310Z,26.44
2022-09-09T10:49:47.338Z,27.94
2022-09-09T10:51:04.557Z,28.87
2022-09-09T10:51:49.296Z,29.79
2022-09-09T10:52:47.279Z,29.03
2022-09-09T10:53:47.286Z,28.78
2022-09-09T10:54:47.262Z,29.84
2022-09-09T10:55:47.254Z,30.62
2022-09-09T10:56:47.262Z,30.91
2022-09-09T10:57:47.250Z,30.21
2022-09-09T10:58:47.250Z,31.02
2022-09-09T10:59:47.227Z,31.02
2022-09-09T11:00:47.239Z,29.78
2022-09-09T11:01:47.359Z,30.46
2022-09-09T11:02:47.250Z,31.48
2022-09-09T11:03:47.274Z,32.24
2022-09-09T11:04:47.231Z,32.37
2022-09-09T11:05:47.198Z,31.53
2022-09-09T11:06:47.295Z,31.43
2022-09-09T11:07:47.257Z,31.79
2022-09-09T11:08:47.189Z,30.83
2022-09-09T11:09:47.217Z,30.49
2022-09-09T11:10:47.205Z,30.43
2022-09-09T11:11:47.196Z,28.85
2022-09-09T11:12:47.153Z,28.59
2022-09-09T11:13:47.184Z,28.36
2022-09-09T11:14:47.916Z,28.09
2022-09-09T11:15:47.136Z,28.91
2022-09-09T11:16:47.254Z,28.31
2022-09-09T11:17:47.140Z,28.77
2022-09-09T11:18:47.109Z,28.68
2022-09-09T11:19:47.128Z,29.15
2022-09-09T11:20:47.165Z,29.07
2022-09-09T11:21:47.124Z,30.11
2022-09-09T11:22:47.100Z,30.75
2022-09-09T11:23:47.063Z,29.55
2022-09-09T11:24:47.203Z,28.35
2022-09-09T11:25:47.106Z,27.74
2022-09-09T11:26:47.136Z,27.28
2022-09-09T11:27:47.059Z,25.97
2022-09-09T11:28:47.040Z,25.75
2022-09-09T11:29:47.046Z,25.75
2022-09-09T11:30:56.205Z,25.72
2022-09-09T11:31:49.118Z,25.75
2022-09-09T11:32:47.026Z,25.64
2022-09-09T11:33:47.014Z,25.43
2022-09-09T11:34:47.106Z,25.15
2022-09-09T11:35:47.025Z,24.69
2022-09-09T11:36:46.996Z,24.61
2022-09-09T11:37:46.996Z,24.64
2022-09-09T11:38:46.989Z,24.38
2022-09-09T11:39:47.012Z,24.10
2022-09-09T11:40:46.992Z,23.79
2022-09-09T11:41:46.965Z,23.75
2022-09-09T11:42:46.957Z,23.53
2022-09-09T11:43:46.957Z,23.40
2022-09-09T11:44:47.002Z,23.31
2022-09-09T11:45:46.983Z,23.04
2022-09-09T11:46:46.996Z,22.89
2022-09-09T11:47:47.917Z,23.86
2022-09-09T11:48:47.948Z,24.79
2022-09-09T11:49:46.945Z,25.80
2022-09-09T11:50:47.932Z,26.12
2022-09-09T11:51:46.916Z,27.41
2022-09-09T11:52:46.918Z,27.62
2022-09-09T11:53:46.950Z,26.09
2022-09-09T11:54:46.896Z,25.56
2022-09-09T11:55:46.884Z,25.67
2022-09-09T11:56:46.881Z,26.68
2022-09-09T11:57:49.566Z,26.28
2022-09-09T11:58:48.125Z,26.05
2022-09-09T11:59:46.864Z,26.11
2022-09-09T12:00:46.847Z,26.04
2022-09-09T12:01:46.847Z,26.11
2022-09-09T12:02:46.885Z,25.93
2022-09-09T12:03:46.857Z,25.74
2022-09-09T12:04:46.885Z,24.80
2022-09-09T12:05:46.937Z,24.41
2022-09-09T12:06:46.858Z,24.14
2022-09-09T12:07:46.850Z,24.10
2022-09-09T12:08:46.797Z,23.60
2022-09-09T12:09:46.809Z,23.26
2022-09-09T12:10:46.809Z,23.14
2022-09-09T12:11:46.783Z,23.34
2022-09-09T12:12:46.782Z,23.40
2022-09-09T12:13:46.766Z,23.49
2022-09-09T12:14:46.787Z,23.47
2022-09-09T12:15:46.771Z,23.67
2022-09-09T12:16:46.827Z,23.49
2022-09-09T12:17:47.597Z,23.20
2022-09-09T12:18:46.835Z,23.15
2022-09-09T12:19:46.746Z,23.38
2022-09-09T12:20:46.730Z,23.65
2022-09-09T12:21:46.718Z,23.83
2022-09-09T12:22:46.734Z,23.86
2022-09-09T12:23:46.714Z,24.00
2022-09-09T12:24:46.693Z,23.85
2022-09-09T12:25:46.678Z,23.95
2022-09-09T12:26:46.753Z,23.32
2022-09-09T12:27:46.703Z,23.42
2022-09-09T12:28:46.675Z,23.58
2022-09-09T12:29:46.700Z,23.52
2022-09-09T12:30:46.666Z,23.47
2022-09-09T12:31:46.683Z,23.47
2022-09-09T12:32:46.645Z,23.15
2022-09-09T12:33:46.627Z,22.84
2022-09-09T12:34:46.623Z,22.72
2022-09-09T12:35:46.622Z,22.65
2022-09-09T12:36:48.705Z,22.44
2022-09-09T12:37:47.622Z,22.41
2022-09-09T12:38:46.601Z,22.01
2022-09-09T12:39:46.675Z,22.13
2022-09-09T12:40:46.587Z,21.99
2022-09-09T12:41:46.588Z,22.09
2022-09-09T12:42:46.590Z,22.19
2022-09-09T12:43:46.570Z,22.46
2022-09-09T12:44:46.565Z,22.74
2022-09-09T12:45:46.595Z,22.94
2022-09-09T12:46:47.663Z,23.42
2022-09-09T12:47:46.562Z,23.90
2022-09-09T12:48:46.585Z,24.02
2022-09-09T12:49:46.615Z,24.17
2022-09-09T12:50:46.570Z,24.47
2022-09-09T12:51:46.499Z,25.31
2022-09-09T12:52:46.604Z,27.24
2022-09-09T12:53:46.505Z,27.94
2022-09-09T12:54:46.491Z,28.25